createdAt,value
2023-05-14T00:00:31.886Z,7.47
2023-05-14T00:02:58.611Z,7.17
2023-05-14T00:05:25.579Z,8.27
2023-05-14T00:07:53.743Z,7.18
2023-05-14T00:10:22.258Z,7.50
2023-05-14T00:12:49.012Z,8.50
2023-05-14T00:15:15.662Z,6.83
2023-05-14T00:17:44.202Z,7.38
2023-05-14T00:20:12.485Z,7.35
2023-05-14T00:22:43.394Z,8.23
2023-05-14T00:25:10.671Z,7.25
2023-05-14T00:27:41.946Z,7.77
2023-05-14T00:30:08.757Z,8.30
2023-05-14T00:32:38.076Z,7.15
2023-05-14T00:35:04.977Z,7.60
2023-05-14T00:37:31.813Z,6.88
2023-05-14T00:39:58.747Z,7.90
2023-05-14T00:42:26.705Z,6.95
2023-05-14T00:44:53.505Z,7.90
2023-05-14T00:47:21.321Z,8.10
2023-05-14T00:49:48.470Z,7.13
2023-05-14T00:52:16.821Z,7.37
2023-05-14T00:54:44.631Z,7.45
2023-05-14T00:57:11.282Z,7.07
2023-05-14T00:59:40.786Z,7.93
2023-05-14T01:02:07.616Z,6.82
2023-05-14T01:04:35.321Z,6.97
2023-05-14T01:07:27.857Z,7.55
2023-05-14T01:10:01.325Z,7.72
2023-05-14T01:12:40.981Z,8.20
2023-05-14T01:15:31.922Z,6.93
2023-05-14T01:18:03.616Z,6.83
2023-05-14T01:20:30.096Z,7.63
2023-05-14T01:22:57.312Z,7.57
2023-05-14T01:25:23.943Z,7.25
2023-05-14T01:28:05.833Z,7.18
2023-05-14T01:30:40.560Z,7.00
2023-05-14T01:33:11.417Z,7.10
2023-05-14T01:35:38.512Z,6.85
2023-05-14T01:38:08.817Z,7.47
2023-05-14T01:40:37.366Z,7.68
2023-05-14T01:43:05.042Z,7.67
2023-05-14T01:45:35.269Z,7.75
2023-05-14T01:48:01.907Z,7.60
2023-05-14T01:50:28.473Z,7.47
2023-05-14T01:52:57.032Z,7.10
2023-05-14T01:55:24.540Z,7.63
2023-05-14T01:57:54.408Z,7.97
2023-05-14T02:00:24.300Z,7.75
2023-05-14T02:02:51.401Z,7.47
2023-05-14T02:05:18.125Z,7.20
2023-05-14T02:07:44.785Z,7.57
2023-05-14T02:10:11.442Z,8.02
2023-05-14T02:12:38.258Z,8.32
2023-05-14T02:15:05.704Z,7.47
2023-05-14T02:17:32.259Z,7.43
2023-05-14T02:20:00.054Z,7.97
2023-05-14T02:22:26.753Z,7.53
2023-05-14T02:24:54.903Z,7.55
2023-05-14T02:27:21.959Z,7.97
2023-05-14T02:29:50.674Z,6.55
2023-05-14T02:32:19.407Z,7.73
2023-05-14T02:34:46.145Z,7.85
2023-05-14T02:37:12.644Z,7.25
2023-05-14T02:39:39.114Z,7.78
2023-05-14T02:42:06.890Z,7.07
2023-05-14T02:44:33.581Z,7.43
2023-05-14T02:47:02.078Z,7.80
2023-05-14T02:49:28.813Z,9.13
2023-05-14T02:51:55.448Z,8.05
2023-05-14T02:54:22.168Z,7.93
2023-05-14T02:56:50.649Z,7.90
2023-05-14T02:59:17.242Z,7.32
2023-05-14T03:01:44.171Z,6.88
2023-05-14T03:04:11.440Z,7.75
2023-05-14T03:06:37.987Z,7.20
2023-05-14T03:09:04.457Z,6.87
2023-05-14T03:11:31.184Z,7.43
2023-05-14T03:13:57.915Z,8.00
2023-05-14T03:16:27.646Z,7.25
2023-05-14T03:18:54.261Z,7.65
2023-05-14T03:21:21.237Z,7.27
2023-05-14T03:23:47.755Z,7.45
2023-05-14T03:26:15.052Z,7.50
2023-05-14T03:28:41.608Z,7.00
2023-05-14T03:31:08.372Z,7.40
2023-05-14T03:33:34.999Z,7.10
2023-05-14T03:36:02.738Z,7.32
2023-05-14T03:38:29.521Z,7.25
2023-05-14T03:40:57.626Z,7.40
2023-05-14T03:43:24.234Z,8.45
2023-05-14T03:45:52.745Z,8.40
2023-05-14T03:48:21.079Z,7.90
2023-05-14T03:50:57.003Z,6.57
2023-05-14T03:53:25.791Z,7.85
2023-05-14T03:55:52.460Z,7.55
2023-05-14T03:58:19.031Z,7.27
2023-05-14T04:00:45.635Z,7.15
2023-05-14T04:03:13.988Z,7.72
2023-05-14T04:05:41.460Z,7.88
2023-05-14T04:08:08.072Z,6.75
2023-05-14T04:10:34.664Z,7.73
2023-05-14T04:13:01.265Z,7.40
2023-05-14T04:15:28.351Z,8.00
2023-05-14T04:17:54.915Z,7.13
2023-05-14T04:20:21.482Z,7.45
2023-05-14T04:22:50.802Z,7.50
2023-05-14T04:25:18.618Z,7.05
2023-05-14T04:27:45.119Z,7.07
2023-05-14T04:30:12.152Z,7.07
2023-05-14T04:32:39.021Z,7.05
2023-05-14T04:35:06.502Z,6.80
2023-05-14T04:37:33.341Z,6.40
2023-05-14T04:39:59.991Z,6.38
2023-05-14T04:42:26.746Z,6.30
2023-05-14T04:44:55.798Z,7.15
2023-05-14T04:47:22.623Z,5.63
2023-05-14T04:49:51.024Z,5.90
2023-05-14T04:52:18.468Z,7.00
2023-05-14T04:54:45.297Z,5.88
2023-05-14T04:57:12.062Z,6.30
2023-05-14T04:59:38.642Z,5.60
2023-05-14T05:02:05.353Z,5.20
2023-05-14T05:04:31.909Z,6.10
2023-05-14T05:06:58.467Z,4.88
2023-05-14T05:09:24.923Z,5.55
2023-05-14T05:11:51.707Z,5.60
2023-05-14T05:14:18.860Z,5.25
2023-05-14T05:16:45.633Z,5.25
2023-05-14T05:19:13.299Z,5.20
2023-05-14T05:21:41.112Z,4.85
2023-05-14T05:24:08.584Z,5.97
2023-05-14T05:26:36.968Z,5.68
2023-05-14T05:29:04.396Z,5.50
2023-05-14T05:31:31.994Z,4.85
2023-05-14T05:34:01.693Z,5.20
2023-05-14T05:36:28.805Z,5.13
2023-05-14T05:38:56.361Z,5.18
2023-05-14T05:41:24.930Z,5.60
2023-05-14T05:43:51.521Z,5.28
2023-05-14T05:46:19.035Z,5.10
2023-05-14T05:48:45.685Z,5.13
2023-05-14T05:51:12.368Z,4.70
2023-05-14T05:53:38.933Z,5.32
2023-05-14T05:56:06.460Z,4.95
2023-05-14T05:58:33.421Z,4.68
2023-05-14T06:01:00.325Z,6.03
2023-05-14T06:03:27.195Z,5.65
2023-05-14T06:05:53.714Z,4.97
2023-05-14T06:08:20.312Z,5.55
2023-05-14T06:10:47.610Z,5.45
2023-05-14T06:13:14.667Z,6.63
2023-05-14T06:15:41.236Z,4.57
2023-05-14T06:18:07.848Z,4.55
2023-05-14T06:20:34.792Z,5.47
2023-05-14T06:23:01.307Z,4.80
2023-05-14T06:25:28.095Z,5.23
2023-05-14T06:27:54.598Z,5.07
2023-05-14T06:30:21.412Z,5.15
2023-05-14T06:32:48.430Z,4.65
2023-05-14T06:35:15.215Z,4.53
2023-05-14T06:37:42.024Z,5.03
2023-05-14T06:40:09.052Z,5.03
2023-05-14T06:42:35.616Z,4.78
2023-05-14T06:45:02.848Z,4.38
2023-05-14T06:47:29.595Z,4.75
2023-05-14T06:49:59.371Z,4.87
2023-05-14T06:52:29.903Z,4.38
2023-05-14T06:54:57.432Z,4.95
2023-05-14T06:57:24.737Z,4.90
2023-05-14T06:59:51.490Z,5.05
2023-05-14T07:02:27.053Z,4.77
2023-05-14T07:04:53.600Z,4.35
2023-05-14T07:07:23.751Z,4.68
2023-05-14T07:09:54.399Z,4.63
2023-05-14T07:12:20.947Z,4.57
2023-05-14T07:14:47.490Z,4.17
2023-05-14T07:17:14.104Z,4.22
2023-05-14T07:19:40.884Z,4.55
2023-05-14T07:22:07.381Z,4.03
2023-05-14T07:24:33.906Z,3.88
2023-05-14T07:27:01.866Z,4.40
2023-05-14T07:29:30.255Z,3.80
2023-05-14T07:31:56.893Z,3.95
2023-05-14T07:34:23.602Z,4.80
2023-05-14T07:36:51.079Z,3.92
2023-05-14T07:39:17.872Z,4.00
2023-05-14T07:41:44.524Z,4.68
2023-05-14T07:44:11.167Z,4.35
2023-05-14T07:46:37.998Z,4.65
2023-05-14T07:49:04.668Z,5.03
2023-05-14T07:51:31.857Z,5.03
2023-05-14T07:54:01.265Z,4.80
2023-05-14T07:56:27.791Z,5.05
2023-05-14T07:58:54.747Z,5.00
2023-05-14T08:01:21.506Z,5.10
2023-05-14T08:03:48.188Z,4.83
2023-05-14T08:06:16.714Z,6.20
2023-05-14T08:08:44.283Z,4.72
2023-05-14T08:11:11.116Z,4.63
2023-05-14T08:13:37.732Z,5.18
2023-05-14T08:16:05.176Z,4.87
2023-05-14T08:18:32.078Z,5.18
2023-05-14T08:20:59.845Z,7.03
2023-05-14T08:23:26.997Z,5.80
2023-05-14T08:25:53.500Z,4.63
2023-05-14T08:28:21.486Z,6.83
2023-05-14T08:30:48.130Z,4.95
2023-05-14T08:33:14.824Z,5.60
2023-05-14T08:35:41.479Z,5.25
2023-05-14T08:38:08.000Z,4.80
2023-05-14T08:40:35.271Z,5.07
2023-05-14T08:43:02.481Z,4.65
2023-05-14T08:45:34.368Z,4.80
2023-05-14T08:48:02.425Z,5.07
2023-05-14T08:50:32.679Z,5.55
2023-05-14T08:52:59.288Z,4.37
2023-05-14T08:55:27.286Z,4.65
2023-05-14T08:57:54.310Z,4.78
2023-05-14T09:00:21.075Z,4.53
2023-05-14T09:02:50.864Z,4.72
2023-05-14T09:05:21.499Z,5.10
2023-05-14T09:07:48.330Z,4.13
2023-05-14T09:10:16.143Z,5.00
2023-05-14T09:12:42.939Z,4.30
2023-05-14T09:15:10.506Z,4.13
2023-05-14T09:17:37.741Z,4.27
2023-05-14T09:20:06.982Z,4.88
2023-05-14T09:22:34.865Z,4.32
2023-05-14T09:25:07.104Z,4.05
2023-05-14T09:27:34.371Z,3.55
2023-05-14T09:30:13.403Z,3.50
2023-05-14T09:32:41.468Z,3.83
2023-05-14T09:35:17.638Z,4.00
2023-05-14T09:37:49.310Z,3.80
2023-05-14T09:40:17.885Z,3.88
2023-05-14T09:42:44.878Z,4.53
2023-05-14T09:45:14.216Z,4.07
2023-05-14T09:47:41.711Z,3.95
2023-05-14T09:50:09.509Z,4.90
2023-05-14T09:52:36.666Z,3.60
2023-05-14T09:55:03.387Z,3.60
2023-05-14T09:57:30.247Z,3.92
2023-05-14T09:59:56.803Z,3.72
2023-05-14T10:02:25.155Z,4.20
2023-05-14T10:04:58.182Z,4.10
2023-05-14T10:07:31.619Z,4.57
2023-05-14T10:10:02.667Z,3.85
2023-05-14T10:12:34.714Z,4.07
2023-05-14T10:15:05.051Z,3.65
2023-05-14T10:17:36.716Z,4.05
2023-05-14T10:20:06.048Z,3.70
2023-05-14T10:22:36.025Z,3.70
2023-05-14T10:25:04.042Z,3.17
2023-05-14T10:27:31.666Z,3.47
2023-05-14T10:29:58.699Z,4.07
2023-05-14T10:32:26.433Z,3.67
2023-05-14T10:34:54.660Z,4.10
2023-05-14T10:37:23.773Z,3.60
2023-05-14T10:39:52.641Z,4.97
2023-05-14T10:42:35.457Z,3.35
2023-05-14T10:45:09.725Z,3.93
2023-05-14T10:50:43.955Z,3.15
2023-05-14T10:53:22.414Z,3.15
2023-05-14T10:55:54.766Z,3.30
2023-05-14T10:58:25.540Z,3.73
2023-05-14T11:00:54.905Z,4.10
2023-05-14T11:10:18.390Z,3.10
2023-05-14T11:12:50.466Z,3.20
2023-05-14T11:15:46.417Z,3.58
2023-05-14T11:18:23.672Z,16.10
2023-05-14T11:21:45.802Z,5.47
2023-05-14T11:24:16.845Z,3.10
2023-05-14T11:27:01.064Z,3.57
2023-05-14T11:29:57.020Z,2.78
2023-05-14T11:32:28.327Z,3.40
2023-05-14T11:35:03.069Z,3.65
2023-05-14T11:37:54.726Z,3.88
2023-05-14T11:40:46.560Z,2.90
2023-05-14T11:46:28.377Z,3.95
2023-05-14T11:57:36.925Z,3.65
2023-05-14T12:00:10.128Z,3.47
2023-05-14T12:08:24.401Z,3.43
2023-05-14T12:10:56.584Z,3.05
2023-05-14T12:13:36.839Z,2.63
2023-05-14T12:16:04.300Z,3.03
2023-05-14T12:27:55.994Z,2.72
2023-05-14T12:30:23.264Z,2.42
2023-05-14T12:32:55.600Z,2.90
2023-05-14T12:35:23.230Z,2.63
2023-05-14T12:37:53.181Z,3.25
2023-05-14T12:40:22.769Z,3.10
2023-05-14T12:42:51.192Z,3.00
2023-05-14T12:45:18.052Z,2.83
2023-05-14T12:47:46.837Z,3.10
2023-05-14T12:50:13.901Z,3.17
2023-05-14T12:52:43.767Z,4.47
2023-05-14T12:55:10.852Z,3.30
2023-05-14T12:57:39.684Z,3.38
2023-05-14T13:00:08.484Z,3.73
2023-05-14T13:02:42.627Z,3.17
2023-05-14T13:05:10.877Z,3.15
2023-05-14T13:07:40.142Z,3.40
2023-05-14T13:10:10.089Z,2.97
2023-05-14T13:12:39.072Z,2.90
2023-05-14T13:15:06.492Z,3.33
2023-05-14T13:17:33.561Z,3.10
2023-05-14T13:20:00.069Z,3.47
2023-05-14T13:22:30.082Z,3.08
2023-05-14T13:25:01.282Z,3.60
2023-05-14T13:27:28.594Z,3.25
2023-05-14T13:29:55.630Z,3.30
2023-05-14T13:32:22.656Z,3.50
2023-05-14T13:34:51.191Z,3.17
2023-05-14T13:37:18.318Z,3.60
2023-05-14T13:39:45.016Z,2.90
2023-05-14T13:42:15.159Z,2.90
2023-05-14T13:44:42.132Z,3.90
2023-05-14T13:47:21.094Z,4.10
2023-05-14T13:49:51.883Z,3.20
2023-05-14T13:52:23.371Z,2.42
2023-05-14T13:54:53.406Z,3.28
2023-05-14T13:57:22.400Z,3.13
2023-05-14T13:59:54.171Z,3.10
2023-05-14T14:02:21.359Z,2.33
2023-05-14T14:04:54.607Z,2.25
2023-05-14T14:07:21.393Z,3.20
2023-05-14T14:09:52.652Z,2.70
2023-05-14T14:12:22.999Z,3.10
2023-05-14T14:14:52.976Z,2.97
2023-05-14T14:17:25.716Z,2.55
2023-05-14T14:19:52.496Z,2.65
2023-05-14T14:22:20.630Z,2.40
2023-05-14T14:24:47.889Z,2.53
2023-05-14T14:27:16.297Z,2.90
2023-05-14T14:29:43.650Z,2.72
2023-05-14T14:32:11.453Z,2.55
2023-05-14T14:34:38.031Z,2.25
2023-05-14T14:37:08.455Z,2.63
2023-05-14T14:39:35.494Z,3.40
2023-05-14T14:42:05.767Z,2.08
2023-05-14T14:44:35.665Z,1.92
2023-05-14T14:47:10.015Z,2.20
2023-05-14T14:49:37.464Z,3.28
2023-05-14T14:52:04.361Z,2.47
2023-05-14T14:54:31.350Z,1.95
2023-05-14T14:56:58.192Z,2.50
2023-05-14T14:59:25.977Z,2.05
2023-05-14T15:01:53.344Z,2.83
2023-05-14T15:04:21.275Z,3.10
2023-05-14T15:06:53.697Z,3.25
2023-05-14T15:09:23.973Z,2.10
2023-05-14T15:11:52.155Z,1.92
2023-05-14T15:14:25.062Z,2.45
2023-05-14T15:16:59.323Z,2.60
2023-05-14T15:19:28.674Z,2.60
2023-05-14T15:21:55.370Z,2.90
2023-05-14T15:24:26.544Z,2.38
2023-05-14T15:26:58.106Z,2.10
2023-05-14T15:29:26.411Z,2.17
2023-05-14T15:31:53.910Z,2.28
2023-05-14T15:34:21.870Z,3.13
2023-05-14T15:36:50.465Z,2.40
2023-05-14T15:39:18.471Z,2.38
2023-05-14T15:41:45.670Z,2.70
2023-05-14T15:44:12.689Z,2.30
2023-05-14T15:46:41.670Z,2.90
2023-05-14T15:49:11.069Z,2.67
2023-05-14T15:51:38.873Z,2.83
2023-05-14T15:54:07.166Z,2.57
2023-05-14T15:56:35.079Z,2.60
2023-05-14T15:59:02.673Z,2.80
2023-05-14T16:01:29.747Z,2.30
2023-05-14T16:03:56.680Z,2.30
2023-05-14T16:06:23.588Z,2.50
2023-05-14T16:08:51.998Z,3.05
2023-05-14T16:11:21.829Z,3.10
2023-05-14T16:13:48.850Z,2.60
2023-05-14T16:16:16.988Z,3.00
2023-05-14T16:18:44.290Z,2.40
2023-05-14T16:21:12.350Z,2.92
2023-05-14T16:23:39.028Z,3.75
2023-05-14T16:26:07.234Z,3.33
2023-05-14T16:28:36.601Z,4.40
2023-05-14T16:31:03.886Z,2.90
2023-05-14T16:33:30.771Z,3.60
2023-05-14T16:35:57.426Z,3.20
2023-05-14T16:38:24.236Z,3.72
2023-05-14T16:40:55.526Z,2.90
2023-05-14T16:43:26.073Z,2.40
2023-05-14T16:45:54.293Z,3.35
2023-05-14T16:48:24.040Z,2.90
2023-05-14T16:50:56.537Z,3.03
2023-05-14T16:53:23.099Z,3.45
2023-05-14T16:55:51.559Z,2.60
2023-05-14T16:58:18.768Z,3.15
2023-05-14T17:00:46.780Z,2.67
2023-05-14T17:03:15.979Z,2.17
2023-05-14T17:05:45.047Z,3.13
2023-05-14T17:08:11.795Z,2.50
2023-05-14T17:10:38.872Z,2.63
2023-05-14T17:13:08.530Z,2.53
2023-05-14T17:15:36.455Z,3.13
2023-05-14T17:18:03.509Z,3.72
2023-05-14T17:20:31.170Z,3.97
2023-05-14T17:22:58.754Z,3.92
2023-05-14T17:25:26.644Z,3.90
2023-05-14T17:27:54.829Z,4.45
2023-05-14T17:30:26.637Z,4.47
2023-05-14T17:32:54.075Z,4.27
2023-05-14T17:35:20.881Z,3.90
2023-05-14T17:37:49.674Z,3.95
2023-05-14T17:40:18.089Z,4.78
2023-05-14T17:42:47.438Z,5.03
2023-05-14T17:45:14.501Z,3.87
2023-05-14T17:47:41.091Z,4.78
2023-05-14T17:50:09.147Z,3.95
2023-05-14T17:52:35.837Z,3.47
2023-05-14T17:55:03.772Z,4.07
2023-05-14T17:57:31.099Z,3.53
2023-05-14T17:59:57.649Z,4.50
2023-05-14T18:02:24.232Z,3.15
2023-05-14T18:04:50.755Z,4.13
2023-05-14T18:07:18.748Z,4.05
2023-05-14T18:09:45.388Z,4.30
2023-05-14T18:12:17.681Z,3.70
2023-05-14T18:14:45.564Z,3.58
2023-05-14T18:17:14.446Z,3.40
2023-05-14T18:19:41.062Z,3.95
2023-05-14T18:22:07.636Z,3.63
2023-05-14T18:24:34.222Z,4.03
2023-05-14T18:27:00.902Z,4.00
2023-05-14T18:29:27.491Z,4.10
2023-05-14T18:31:54.765Z,3.20
2023-05-14T18:34:21.431Z,3.43
2023-05-14T18:36:48.235Z,4.55
2023-05-14T18:39:15.092Z,3.80
2023-05-14T18:41:41.600Z,3.35
2023-05-14T18:44:09.550Z,5.72
2023-05-14T18:46:36.164Z,2.83
2023-05-14T18:49:02.872Z,3.25
2023-05-14T18:51:29.668Z,3.55
2023-05-14T18:53:56.491Z,3.65
2023-05-14T18:56:23.174Z,2.92
2023-05-14T18:58:49.613Z,3.80
2023-05-14T19:01:16.297Z,3.53
2023-05-14T19:03:43.132Z,3.00
2023-05-14T19:06:11.255Z,2.70
2023-05-14T19:08:38.251Z,2.90
2023-05-14T19:11:04.978Z,2.67
2023-05-14T19:13:31.877Z,3.22
2023-05-14T19:15:58.537Z,3.00
2023-05-14T19:18:25.389Z,3.20
2023-05-14T19:20:52.003Z,3.83
2023-05-14T19:23:18.576Z,3.77
2023-05-14T19:25:45.304Z,3.70
2023-05-14T19:28:11.879Z,4.45
2023-05-14T19:30:38.649Z,4.20
2023-05-14T19:33:05.355Z,3.85
2023-05-14T19:35:32.032Z,4.60
2023-05-14T19:37:58.685Z,3.80
2023-05-14T19:40:25.328Z,3.67
2023-05-14T19:42:51.756Z,4.80
2023-05-14T19:45:20.924Z,3.78
2023-05-14T19:47:47.559Z,3.17
2023-05-14T19:50:14.693Z,3.30
2023-05-14T19:52:41.279Z,3.35
2023-05-14T19:55:08.068Z,3.58
2023-05-14T19:57:34.898Z,3.50
2023-05-14T20:00:03.417Z,3.40
2023-05-14T20:02:30.075Z,4.13
2023-05-14T20:04:56.732Z,4.07
2023-05-14T20:07:25.005Z,3.72
2023-05-14T20:09:52.136Z,4.05
2023-05-14T20:12:18.657Z,3.97
2023-05-14T20:14:49.812Z,3.50
2023-05-14T20:17:16.607Z,3.65
2023-05-14T20:19:45.159Z,4.03
2023-05-14T20:22:16.714Z,4.35
2023-05-14T20:24:45.028Z,4.37
2023-05-14T20:27:12.348Z,2.97
2023-05-14T20:29:40.782Z,3.83
2023-05-14T20:32:08.021Z,3.92
2023-05-14T20:34:34.544Z,4.13
2023-05-14T20:37:01.590Z,3.93
2023-05-14T20:39:28.379Z,4.07
2023-05-14T20:41:55.079Z,4.20
2023-05-14T20:44:21.600Z,4.20
2023-05-14T20:46:51.517Z,3.80
2023-05-14T20:49:18.397Z,4.33
2023-05-14T20:51:45.060Z,4.00
2023-05-14T20:54:11.732Z,4.18
2023-05-14T20:56:38.292Z,4.53
2023-05-14T20:59:05.735Z,4.35
2023-05-14T21:01:32.386Z,4.20
2023-05-14T21:03:59.219Z,4.28
2023-05-14T21:06:26.199Z,3.97
2023-05-14T21:08:52.981Z,3.88
2023-05-14T21:11:22.152Z,5.43
2023-05-14T21:13:50.628Z,4.20
2023-05-14T21:16:17.675Z,5.18
2023-05-14T21:18:45.008Z,4.72
2023-05-14T21:21:27.551Z,4.72
2023-05-14T21:24:00.123Z,4.40
2023-05-14T21:26:47.174Z,3.93
2023-05-14T21:29:17.656Z,4.32
2023-05-14T21:31:45.801Z,4.22
2023-05-14T21:34:15.180Z,3.97
2023-05-14T21:36:47.573Z,4.72
2023-05-14T21:39:15.097Z,4.30
2023-05-14T21:41:47.084Z,5.20
2023-05-14T21:44:19.592Z,4.22
2023-05-14T21:46:47.430Z,4.70
2023-05-14T21:49:14.215Z,4.15
2023-05-14T21:51:45.970Z,5.03
2023-05-14T21:54:14.236Z,4.60
2023-05-14T21:56:40.860Z,4.43
2023-05-14T21:59:11.117Z,4.30
2023-05-14T22:01:50.492Z,3.78
2023-05-14T22:04:33.564Z,4.27
2023-05-14T22:07:00.592Z,3.60
2023-05-14T22:09:27.392Z,4.30
2023-05-14T22:11:56.085Z,4.30
2023-05-14T22:14:22.610Z,5.40
2023-05-14T22:16:51.953Z,5.33
2023-05-14T22:19:20.639Z,5.93
2023-05-14T22:21:47.578Z,5.22
2023-05-14T22:24:14.779Z,6.50
2023-05-14T22:26:44.545Z,4.95
2023-05-14T22:29:11.086Z,5.33
2023-05-14T22:31:37.848Z,5.03
2023-05-14T22:34:16.609Z,5.22
2023-05-14T22:36:45.175Z,5.30
2023-05-14T22:39:13.466Z,6.00
2023-05-14T22:41:51.791Z,5.80
2023-05-14T22:44:18.391Z,5.47
2023-05-14T22:46:49.659Z,5.70
2023-05-14T22:49:19.089Z,5.13
2023-05-14T22:51:57.768Z,6.10
2023-05-14T22:54:27.464Z,5.70
2023-05-14T22:56:54.091Z,6.28
2023-05-14T22:59:36.014Z,6.30
2023-05-14T23:02:20.737Z,6.53
2023-05-14T23:04:47.625Z,6.10
2023-05-14T23:07:14.688Z,6.40
2023-05-14T23:09:41.358Z,6.38
2023-05-14T23:12:09.569Z,7.35
2023-05-14T23:14:38.175Z,6.63
2023-05-14T23:17:05.248Z,6.82
2023-05-14T23:19:45.289Z,6.07
2023-05-14T23:22:12.791Z,6.68
2023-05-14T23:24:39.322Z,6.05
2023-05-14T23:27:07.233Z,7.40
2023-05-14T23:29:34.120Z,7.43
2023-05-14T23:32:00.739Z,7.63
2023-05-14T23:34:27.333Z,6.78
2023-05-14T23:36:53.987Z,7.80
2023-05-14T23:39:22.954Z,7.18
2023-05-14T23:41:50.553Z,7.05
2023-05-14T23:44:17.070Z,7.40
2023-05-14T23:46:45.968Z,7.10
2023-05-14T23:49:12.982Z,7.10
2023-05-14T23:51:39.471Z,7.05
2023-05-14T23:54:06.365Z,7.68
2023-05-14T23:56:33.695Z,7.60
2023-05-14T23:59:00.325Z,8.02
